createdAt,value
2022-12-28T00:02:47.706Z,0.25
2022-12-28T00:05:56.278Z,0.40
2022-12-28T00:09:04.771Z,0.27
2022-12-28T00:12:14.674Z,0.17
2022-12-28T00:15:23.108Z,0.35
2022-12-28T00:18:34.516Z,0.06
2022-12-28T00:21:43.728Z,0.27
2022-12-28T00:24:52.141Z,0.16
2022-12-28T00:28:01.594Z,0.34
2022-12-28T00:31:09.859Z,0.07
2022-12-28T00:34:18.127Z,-0.15
2022-12-28T00:37:26.253Z,0.01
2022-12-28T00:40:34.748Z,0.05
2022-12-28T00:43:44.605Z,0.06
2022-12-28T00:46:53.150Z,0.07
2022-12-28T00:50:01.441Z,0.12
2022-12-28T00:53:10.589Z,0.16
2022-12-28T00:56:25.242Z,0.18
2022-12-28T00:59:35.256Z,0.15
2022-12-28T01:02:43.484Z,0.23
2022-12-28T01:05:51.972Z,0.20
2022-12-28T01:09:01.247Z,0.13
2022-12-28T01:12:09.645Z,0.14
2022-12-28T01:15:19.563Z,0.18
2022-12-28T01:18:28.719Z,0.13
2022-12-28T01:21:37.666Z,0.08
2022-12-28T01:24:45.994Z,0.10
2022-12-28T01:27:54.066Z,0.28
2022-12-28T01:31:07.586Z,0.14
2022-12-28T01:34:16.302Z,0.20
2022-12-28T01:37:27.737Z,0.05
2022-12-28T01:40:36.137Z,0.01
2022-12-28T01:43:47.333Z,0.05
2022-12-28T01:47:03.898Z,0.07
2022-12-28T01:50:17.778Z,0.03
2022-12-28T01:53:26.115Z,-0.12
2022-12-28T01:56:36.022Z,-0.07
2022-12-28T01:59:51.057Z,-0.15
2022-12-28T02:03:08.729Z,0.03
2022-12-28T02:06:17.502Z,-0.01
2022-12-28T02:09:32.887Z,-0.17
2022-12-28T02:12:41.327Z,0.01
2022-12-28T02:15:50.867Z,0.04
2022-12-28T02:19:01.133Z,0.10
2022-12-28T02:22:43.545Z,0.13
2022-12-28T02:26:36.591Z,0.05
2022-12-28T02:30:05.998Z,0.06
2022-12-28T02:38:29.452Z,0.03
2022-12-28T02:41:42.466Z,0.08
2022-12-28T02:45:08.428Z,0.07
2022-12-28T02:48:35.764Z,0.12
2022-12-28T02:52:00.464Z,0.12
2022-12-28T02:55:44.224Z,0.10
2022-12-28T02:59:31.483Z,0.23
2022-12-28T03:03:05.830Z,0.11
2022-12-28T03:06:47.619Z,0.14
2022-12-28T03:10:11.387Z,0.28
2022-12-28T03:13:45.176Z,0.32
2022-12-28T03:17:21.234Z,0.40
2022-12-28T03:20:50.495Z,0.47
2022-12-28T03:24:21.243Z,0.44
2022-12-28T03:27:50.635Z,0.55
2022-12-28T03:31:11.375Z,0.61
2022-12-28T03:34:27.043Z,0.72
2022-12-28T03:37:47.932Z,0.69
2022-12-28T03:41:09.591Z,0.69
2022-12-28T03:44:24.701Z,0.63
2022-12-28T03:47:36.915Z,0.66
2022-12-28T03:50:49.615Z,0.51
2022-12-28T03:53:59.620Z,0.51
2022-12-28T03:57:09.777Z,0.67
2022-12-28T04:00:22.519Z,0.70
2022-12-28T04:03:33.583Z,0.79
2022-12-28T04:06:44.040Z,0.80
2022-12-28T04:09:52.314Z,0.66
2022-12-28T04:13:01.795Z,0.81
2022-12-28T04:16:28.013Z,0.77
2022-12-28T04:19:36.208Z,0.83
2022-12-28T04:22:44.443Z,0.85
2022-12-28T04:26:02.077Z,0.94
2022-12-28T04:29:11.745Z,1.07
2022-12-28T04:32:27.035Z,1.09
2022-12-28T04:35:35.311Z,1.07
2022-12-28T04:38:44.412Z,1.09
2022-12-28T04:41:52.699Z,1.08
2022-12-28T04:45:02.394Z,1.07
2022-12-28T04:48:10.734Z,1.11
2022-12-28T04:51:21.550Z,1.09
2022-12-28T04:54:29.989Z,1.01
2022-12-28T04:57:40.287Z,1.00
2022-12-28T05:00:53.828Z,0.99
2022-12-28T05:04:02.955Z,1.03
2022-12-28T05:07:19.805Z,0.93
2022-12-28T05:10:31.069Z,0.90
2022-12-28T05:13:41.955Z,0.92
2022-12-28T05:16:53.357Z,1.02
2022-12-28T05:20:01.827Z,1.09
2022-12-28T05:23:09.925Z,1.13
2022-12-28T05:26:22.695Z,1.05
2022-12-28T05:29:31.072Z,1.11
2022-12-28T05:32:40.790Z,1.01
2022-12-28T05:35:49.286Z,1.06
2022-12-28T05:38:58.329Z,1.02
2022-12-28T05:42:07.058Z,1.21
2022-12-28T05:45:15.454Z,1.36
2022-12-28T05:48:25.265Z,1.39
2022-12-28T05:51:34.405Z,1.50
2022-12-28T05:54:42.514Z,1.56
2022-12-28T05:57:50.702Z,1.53
2022-12-28T06:01:08.713Z,1.51
2022-12-28T06:04:21.263Z,1.56
2022-12-28T06:07:29.737Z,1.63
2022-12-28T06:10:38.079Z,1.64
2022-12-28T06:13:47.148Z,1.74
2022-12-28T06:16:55.842Z,1.80
2022-12-28T06:20:06.537Z,1.69
2022-12-28T06:23:14.675Z,1.79
2022-12-28T06:26:23.660Z,1.82
2022-12-28T06:29:31.726Z,1.70
2022-12-28T06:32:39.813Z,1.55
2022-12-28T06:35:49.605Z,1.61
2022-12-28T06:39:02.902Z,1.46
2022-12-28T06:42:11.046Z,1.77
2022-12-28T06:45:19.389Z,1.55
2022-12-28T06:48:27.984Z,1.63
2022-12-28T06:51:41.507Z,1.51
2022-12-28T06:54:49.765Z,1.61
2022-12-28T06:57:58.352Z,1.55
2022-12-28T07:01:12.974Z,1.65
2022-12-28T07:04:21.421Z,1.51
2022-12-28T07:07:30.982Z,1.51
2022-12-28T07:10:39.584Z,1.78
2022-12-28T07:13:48.522Z,1.76
2022-12-28T07:16:56.935Z,1.70
2022-12-28T07:20:06.011Z,1.83
2022-12-28T07:23:15.853Z,1.90
2022-12-28T07:26:29.199Z,1.92
2022-12-28T07:29:37.962Z,1.83
2022-12-28T07:32:46.599Z,2.02
2022-12-28T07:35:55.016Z,1.97
2022-12-28T07:39:04.969Z,2.03
2022-12-28T07:42:13.350Z,2.26
2022-12-28T07:45:22.339Z,2.16
2022-12-28T07:48:33.001Z,2.42
2022-12-28T07:51:41.222Z,2.46
2022-12-28T07:54:51.612Z,2.63
2022-12-28T07:58:00.225Z,2.61
2022-12-28T08:01:11.769Z,2.59
2022-12-28T08:04:21.280Z,2.76
2022-12-28T08:07:29.705Z,2.82
2022-12-28T08:10:39.472Z,2.77
2022-12-28T08:13:50.352Z,2.99
2022-12-28T08:16:58.646Z,3.02
2022-12-28T08:20:08.185Z,3.12
2022-12-28T08:23:16.421Z,3.23
2022-12-28T08:26:29.906Z,3.31
2022-12-28T08:29:38.286Z,3.41
2022-12-28T08:32:46.494Z,3.63
2022-12-28T08:35:58.249Z,3.47
2022-12-28T08:39:07.191Z,3.42
2022-12-28T08:42:17.340Z,3.68
2022-12-28T08:45:26.399Z,3.97
2022-12-28T08:48:36.699Z,4.06
2022-12-28T08:51:46.206Z,4.20
2022-12-28T08:54:54.547Z,4.10
2022-12-28T08:58:04.391Z,4.04
2022-12-28T09:01:18.418Z,3.98
2022-12-28T09:04:26.651Z,4.07
2022-12-28T09:07:35.512Z,4.35
2022-12-28T09:10:43.916Z,4.47
2022-12-28T09:13:53.708Z,4.61
2022-12-28T09:17:02.298Z,4.55
2022-12-28T09:20:12.263Z,4.65
2022-12-28T09:23:20.457Z,4.55
2022-12-28T09:26:31.813Z,4.49
2022-12-28T09:29:41.319Z,4.55
2022-12-28T09:33:09.710Z,4.74
2022-12-28T09:36:19.247Z,4.85
2022-12-28T09:39:29.816Z,4.96
2022-12-28T09:42:43.945Z,4.96
2022-12-28T09:45:56.851Z,5.39
2022-12-28T09:49:13.812Z,5.68
2022-12-28T09:52:32.130Z,5.84
2022-12-28T09:55:54.645Z,6.06
2022-12-28T09:59:06.511Z,6.01
2022-12-28T10:02:28.263Z,6.18
2022-12-28T10:05:36.823Z,6.36
2022-12-28T10:08:52.762Z,6.09
2022-12-28T10:12:12.516Z,6.40
2022-12-28T10:15:24.096Z,6.30
2022-12-28T10:18:39.375Z,6.47
2022-12-28T10:21:50.276Z,6.70
2022-12-28T10:24:58.517Z,6.73
2022-12-28T10:28:09.242Z,6.83
2022-12-28T10:31:30.790Z,7.07
2022-12-28T10:34:57.038Z,7.29
2022-12-28T10:38:20.870Z,7.48
2022-12-28T10:41:38.477Z,7.57
2022-12-28T10:44:51.853Z,7.69
2022-12-28T10:48:00.213Z,7.80
2022-12-28T10:51:17.065Z,7.65
2022-12-28T10:54:27.862Z,7.91
2022-12-28T10:58:02.918Z,7.83
2022-12-28T11:01:19.680Z,7.67
2022-12-28T11:04:28.518Z,7.82
2022-12-28T11:07:41.670Z,7.96
2022-12-28T11:10:58.064Z,8.00
2022-12-28T11:14:15.603Z,7.96
2022-12-28T11:17:28.342Z,7.68
2022-12-28T11:20:42.967Z,7.52
2022-12-28T11:23:54.148Z,7.43
2022-12-28T11:27:04.541Z,7.32
2022-12-28T11:30:18.254Z,7.21
2022-12-28T11:33:36.297Z,7.19
2022-12-28T11:36:45.743Z,7.19
2022-12-28T11:39:56.218Z,7.27
2022-12-28T11:43:04.787Z,7.23
2022-12-28T11:46:43.826Z,7.20
2022-12-28T11:49:53.749Z,7.12
2022-12-28T11:53:03.425Z,7.40
2022-12-28T11:56:16.708Z,7.36
2022-12-28T11:59:27.533Z,7.34
2022-12-28T12:02:42.388Z,7.60
2022-12-28T12:05:54.173Z,7.59
2022-12-28T12:09:02.734Z,7.66
2022-12-28T12:12:48.567Z,7.61
2022-12-28T12:16:04.023Z,7.67
2022-12-28T12:19:26.917Z,7.69
2022-12-28T12:22:46.183Z,7.84
2022-12-28T12:25:59.308Z,7.86
2022-12-28T12:29:18.973Z,7.98
2022-12-28T12:32:40.819Z,8.21
2022-12-28T12:36:07.285Z,9.01
2022-12-28T12:39:38.995Z,9.26
2022-12-28T12:43:13.281Z,10.32
2022-12-28T12:47:18.518Z,10.55
2022-12-28T12:50:47.587Z,9.68
2022-12-28T12:54:19.266Z,9.02
2022-12-28T12:57:40.327Z,8.57
2022-12-28T13:01:16.425Z,8.41
2022-12-28T13:04:30.937Z,8.23
2022-12-28T13:07:41.529Z,8.12
2022-12-28T13:10:51.004Z,8.06
2022-12-28T13:13:59.398Z,8.11
2022-12-28T13:17:18.410Z,8.23
2022-12-28T13:20:29.001Z,8.15
2022-12-28T13:23:46.594Z,8.23
2022-12-28T13:26:56.979Z,8.32
2022-12-28T13:30:06.177Z,8.42
2022-12-28T13:33:23.555Z,8.43
2022-12-28T13:36:33.582Z,8.50
2022-12-28T13:39:42.763Z,8.68
2022-12-28T13:43:08.446Z,8.70
2022-12-28T13:46:21.275Z,8.72
2022-12-28T13:49:35.355Z,8.72
2022-12-28T13:52:53.144Z,8.84
2022-12-28T13:56:05.426Z,8.81
2022-12-28T13:59:20.850Z,8.78
2022-12-28T14:02:29.872Z,8.72
2022-12-28T14:05:42.981Z,8.59
2022-12-28T14:08:54.588Z,8.41
2022-12-28T14:12:03.874Z,8.29
2022-12-28T14:15:14.183Z,8.22
2022-12-28T14:18:23.070Z,8.07
2022-12-28T14:21:37.928Z,8.05
2022-12-28T14:25:03.475Z,8.05
2022-12-28T14:28:24.600Z,7.96
2022-12-28T14:31:33.569Z,7.86
2022-12-28T14:34:41.972Z,7.79
2022-12-28T14:37:56.126Z,7.79
2022-12-28T14:41:07.044Z,7.82
2022-12-28T14:44:21.810Z,7.76
2022-12-28T14:47:44.351Z,7.70
2022-12-28T14:51:02.109Z,7.67
2022-12-28T14:54:23.913Z,7.57
2022-12-28T14:57:40.012Z,7.49
2022-12-28T15:01:00.716Z,7.34
2022-12-28T15:04:25.514Z,7.09
2022-12-28T15:07:34.016Z,6.86
2022-12-28T15:10:49.179Z,6.69
2022-12-28T15:13:59.650Z,6.49
2022-12-28T15:17:09.608Z,6.26
2022-12-28T15:20:18.828Z,6.12
2022-12-28T15:23:27.325Z,5.92
2022-12-28T15:26:35.758Z,5.73
2022-12-28T15:30:04.866Z,5.47
2022-12-28T15:33:14.016Z,5.28
2022-12-28T15:36:24.623Z,5.09
2022-12-28T15:39:33.007Z,5.09
2022-12-28T15:42:45.234Z,4.72
2022-12-28T15:45:59.792Z,4.64
2022-12-28T15:49:09.713Z,4.33
2022-12-28T15:52:18.175Z,4.36
2022-12-28T15:55:26.647Z,4.40
2022-12-28T15:58:35.166Z,4.31
2022-12-28T16:01:47.733Z,4.25
2022-12-28T16:04:56.190Z,4.16
2022-12-28T16:08:05.491Z,4.12
2022-12-28T16:11:16.709Z,4.08
2022-12-28T16:14:25.046Z,4.00
2022-12-28T16:17:38.221Z,3.82
2022-12-28T16:20:50.361Z,3.92
2022-12-28T16:24:01.024Z,3.77
2022-12-28T16:27:12.068Z,3.74
2022-12-28T16:30:21.089Z,3.70
2022-12-28T16:33:31.221Z,3.63
2022-12-28T16:36:40.136Z,3.69
2022-12-28T16:39:51.419Z,3.49
2022-12-28T16:43:00.276Z,3.47
2022-12-28T16:46:10.826Z,3.20
2022-12-28T16:49:21.317Z,3.31
2022-12-28T16:52:29.968Z,3.24
2022-12-28T16:55:42.952Z,3.18
2022-12-28T16:58:53.388Z,3.47
2022-12-28T17:02:02.318Z,3.38
2022-12-28T17:05:13.174Z,3.27
2022-12-28T17:08:22.072Z,3.28
2022-12-28T17:11:32.082Z,3.41
2022-12-28T17:14:41.112Z,3.31
2022-12-28T17:17:49.790Z,3.07
2022-12-28T17:21:04.923Z,3.15
2022-12-28T17:24:15.677Z,3.07
2022-12-28T17:27:24.924Z,3.12
2022-12-28T17:30:33.773Z,3.02
2022-12-28T17:33:46.775Z,2.98
2022-12-28T17:36:56.327Z,2.76
2022-12-28T17:40:05.421Z,2.85
2022-12-28T17:43:13.582Z,3.04
2022-12-28T17:46:23.191Z,2.88
2022-12-28T17:49:31.777Z,2.93
2022-12-28T17:52:41.913Z,2.99
2022-12-28T17:55:50.274Z,2.87
2022-12-28T17:59:00.607Z,2.94
2022-12-28T18:02:12.654Z,2.96
2022-12-28T18:05:21.011Z,2.84
2022-12-28T18:08:34.823Z,2.72
2022-12-28T18:11:42.995Z,2.69
2022-12-28T18:14:52.100Z,2.76
2022-12-28T18:18:00.388Z,2.74
2022-12-28T18:21:19.421Z,2.75
2022-12-28T18:24:30.426Z,2.76
2022-12-28T18:27:38.671Z,2.71
2022-12-28T18:30:48.382Z,2.78
2022-12-28T18:33:56.960Z,2.83
2022-12-28T18:37:05.252Z,2.82
2022-12-28T18:40:16.092Z,2.89
2022-12-28T18:43:25.438Z,2.78
2022-12-28T18:46:34.549Z,2.75
2022-12-28T18:49:47.097Z,2.64
2022-12-28T18:52:56.367Z,2.68
2022-12-28T18:56:08.870Z,2.73
2022-12-28T18:59:17.327Z,2.78
2022-12-28T19:02:25.614Z,2.76
2022-12-28T19:05:34.008Z,2.83
2022-12-28T19:08:42.865Z,2.85
2022-12-28T19:11:52.848Z,2.79
2022-12-28T19:15:01.012Z,2.74
2022-12-28T19:18:09.366Z,2.66
2022-12-28T19:21:25.908Z,2.65
2022-12-28T19:24:34.253Z,2.46
2022-12-28T19:27:44.095Z,2.44
2022-12-28T19:30:52.590Z,2.52
2022-12-28T19:34:01.262Z,2.28
2022-12-28T19:37:09.587Z,2.39
2022-12-28T19:40:18.521Z,2.43
2022-12-28T19:43:28.013Z,2.40
2022-12-28T19:46:36.292Z,2.56
2022-12-28T19:49:44.670Z,2.43
2022-12-28T19:52:52.782Z,2.35
2022-12-28T19:56:06.798Z,2.31
2022-12-28T19:59:16.509Z,2.36
2022-12-28T20:02:25.010Z,2.23
2022-12-28T20:05:36.445Z,2.20
2022-12-28T20:08:47.844Z,2.19
2022-12-28T20:11:56.223Z,2.25
2022-12-28T20:15:07.479Z,2.31
2022-12-28T20:18:15.665Z,2.28
2022-12-28T20:21:27.617Z,2.26
2022-12-28T20:24:36.397Z,2.22
2022-12-28T20:27:44.678Z,2.22
2022-12-28T20:31:02.373Z,2.28
2022-12-28T20:34:10.739Z,2.24
2022-12-28T20:37:20.165Z,2.10
2022-12-28T20:40:29.060Z,2.11
2022-12-28T20:43:36.845Z,2.19
2022-12-28T20:46:49.371Z,2.10
2022-12-28T20:50:00.363Z,2.09
2022-12-28T20:53:09.163Z,2.24
2022-12-28T20:56:17.873Z,2.35
2022-12-28T20:59:26.940Z,2.21
2022-12-28T21:02:37.215Z,2.24
2022-12-28T21:05:45.603Z,2.19
2022-12-28T21:08:54.318Z,2.15
2022-12-28T21:12:03.232Z,2.24
2022-12-28T21:15:13.805Z,2.20
2022-12-28T21:18:24.259Z,2.12
2022-12-28T21:21:33.498Z,2.16
2022-12-28T21:24:43.335Z,2.10
2022-12-28T21:27:52.215Z,2.08
2022-12-28T21:31:03.707Z,2.07
2022-12-28T21:34:14.782Z,2.10
2022-12-28T21:37:35.944Z,2.13
2022-12-28T21:40:44.515Z,2.09
2022-12-28T21:43:53.392Z,2.14
2022-12-28T21:47:01.915Z,2.07
2022-12-28T21:50:12.946Z,2.05
2022-12-28T21:53:21.406Z,2.10
2022-12-28T21:56:30.697Z,2.09
2022-12-28T21:59:39.075Z,2.13
2022-12-28T22:03:04.942Z,2.11
2022-12-28T22:06:15.095Z,2.08
2022-12-28T22:09:41.130Z,2.21
2022-12-28T22:12:49.306Z,2.18
2022-12-28T22:15:58.519Z,2.11
2022-12-28T22:19:06.933Z,2.17
2022-12-28T22:22:18.543Z,2.21
2022-12-28T22:25:29.826Z,2.18
2022-12-28T22:28:39.090Z,2.30
2022-12-28T22:31:47.565Z,2.30
2022-12-28T22:34:55.819Z,2.38
2022-12-28T22:38:05.545Z,2.28
2022-12-28T22:41:14.008Z,2.33
2022-12-28T22:44:22.385Z,2.30
2022-12-28T22:47:30.540Z,2.31
2022-12-28T22:50:43.121Z,2.26
2022-12-28T22:53:52.924Z,2.33
2022-12-28T22:57:01.091Z,2.33
2022-12-28T23:00:14.289Z,2.40
2022-12-28T23:03:22.676Z,2.47
2022-12-28T23:06:30.855Z,2.38
2022-12-28T23:09:40.508Z,2.42
2022-12-28T23:12:48.707Z,2.41
2022-12-28T23:15:59.259Z,2.58
2022-12-28T23:19:30.674Z,2.54
2022-12-28T23:22:56.411Z,2.63
2022-12-28T23:26:27.718Z,2.61
2022-12-28T23:29:35.938Z,2.66
2022-12-28T23:32:44.355Z,2.62
2022-12-28T23:35:52.480Z,2.68
2022-12-28T23:39:00.747Z,2.69
2022-12-28T23:42:11.295Z,2.80
2022-12-28T23:45:20.231Z,2.88
2022-12-28T23:48:28.730Z,2.79
2022-12-28T23:51:37.155Z,2.85
2022-12-28T23:54:45.485Z,2.87
2022-12-28T23:57:55.787Z,2.86
